Deer Lake, Washington
Current Conditions -  °F | °C
As of 8:53 PM on Wednesday 22 Oct 2014 (Local Time) from KDEW Reporting Station
Moderate Rain Moderate Rain  
Wind Chill: 49°   Ceiling: 4800
Heat Index: 49°   Visibility: 6mi
Dew Point: 49°   Wind: 0mph
Humidity: 100%   Direction: NA
Pressure: 29.78"   Gusts: NA
Location:  48.1077°N, 117.582°W
Report Text: KDEW 230353Z AUTO 00000KT 6SM RA BR BKN048 OVC055 09/09 A2978 RMK AO2 SLP090 P0004 T00940094
Loading
Personal Weather Stations






























Interactive Weather Map
Tropical Storm Tracking
New forecast layout! Learn more

10-Day Weather Forecast

Advertisements
Track Severe Weather on mobile